createdAt,value
2023-01-05T00:01:09.715Z,8.40
2023-01-05T00:03:37.360Z,8.40
2023-01-05T00:06:08.173Z,8.40
2023-01-05T00:08:37.663Z,8.50
2023-01-05T00:11:37.117Z,8.50
2023-01-05T00:14:23.148Z,8.40
2023-01-05T00:17:08.580Z,8.50
2023-01-05T00:19:54.643Z,8.50
2023-01-05T00:22:30.481Z,8.50
2023-01-05T00:25:12.414Z,8.50
2023-01-05T00:27:44.810Z,8.50
2023-01-05T00:30:14.431Z,8.50
2023-01-05T00:32:42.410Z,8.50
2023-01-05T00:35:10.570Z,8.50
2023-01-05T00:37:40.962Z,8.50
2023-01-05T00:40:10.719Z,8.50
2023-01-05T00:42:37.987Z,8.50
2023-01-05T00:45:10.465Z,8.50
2023-01-05T00:47:37.401Z,8.50
2023-01-05T00:50:05.545Z,8.50
2023-01-05T00:52:32.394Z,8.50
2023-01-05T00:54:59.538Z,8.50
2023-01-05T00:57:26.689Z,8.60
2023-01-05T00:59:55.273Z,8.50
2023-01-05T01:02:22.496Z,8.50
2023-01-05T01:04:49.606Z,8.50
2023-01-05T01:07:16.389Z,8.50
2023-01-05T01:09:43.765Z,8.40
2023-01-05T01:12:10.733Z,8.50
2023-01-05T01:14:38.427Z,8.40
2023-01-05T01:17:05.348Z,8.40
2023-01-05T01:19:32.400Z,8.30
2023-01-05T01:21:59.633Z,8.20
2023-01-05T01:24:27.865Z,8.20
2023-01-05T01:26:55.895Z,8.20
2023-01-05T01:29:24.192Z,8.20
2023-01-05T01:31:53.271Z,8.10
2023-01-05T01:34:20.535Z,8.10
2023-01-05T01:36:47.882Z,8.10
2023-01-05T01:39:17.683Z,8.10
2023-01-05T01:41:49.109Z,8.10
2023-01-05T01:44:47.854Z,8.10
2023-01-05T01:47:29.541Z,8.10
2023-01-05T01:49:59.445Z,8.10
2023-01-05T01:52:28.175Z,8.10
2023-01-05T01:54:56.118Z,8.10
2023-01-05T01:57:24.104Z,8.10
2023-01-05T01:59:51.325Z,8.10
2023-01-05T02:02:19.223Z,8.10
2023-01-05T02:04:46.453Z,8.10
2023-01-05T02:07:15.622Z,8.10
2023-01-05T02:09:43.898Z,8.10
2023-01-05T02:12:28.614Z,8.10
2023-01-05T02:15:19.433Z,8.00
2023-01-05T02:18:11.530Z,8.00
2023-01-05T02:21:02.879Z,8.00
2023-01-05T02:23:58.147Z,7.90
2023-01-05T02:26:48.497Z,7.90
2023-01-05T02:29:44.689Z,8.00
2023-01-05T02:32:14.513Z,8.00
2023-01-05T02:34:52.678Z,8.00
2023-01-05T02:37:29.486Z,8.00
2023-01-05T02:40:13.603Z,8.00
2023-01-05T02:42:43.787Z,8.00
2023-01-05T02:45:11.163Z,8.00
2023-01-05T02:47:44.641Z,8.10
2023-01-05T02:50:38.257Z,8.10
2023-01-05T02:53:15.281Z,8.10
2023-01-05T02:55:47.065Z,8.10
2023-01-05T02:58:41.748Z,8.20
2023-01-05T03:01:21.385Z,8.20
2023-01-05T03:03:58.284Z,8.20
2023-01-05T03:06:57.344Z,8.20
2023-01-05T03:09:36.815Z,8.20
2023-01-05T03:12:30.329Z,8.20
2023-01-05T03:15:03.561Z,8.20
2023-01-05T03:17:34.985Z,8.20
2023-01-05T03:20:03.684Z,8.20
2023-01-05T03:22:50.685Z,8.30
2023-01-05T03:25:40.292Z,8.30
2023-01-05T03:28:32.239Z,8.30
2023-01-05T03:31:42.519Z,8.30
2023-01-05T03:35:03.973Z,8.30
2023-01-05T03:37:35.581Z,8.30
2023-01-05T03:40:07.690Z,8.30
2023-01-05T03:42:37.357Z,8.30
2023-01-05T03:45:06.399Z,8.20
2023-01-05T03:47:33.187Z,8.10
2023-01-05T03:50:00.240Z,8.10
2023-01-05T03:52:28.128Z,8.00
2023-01-05T03:54:54.928Z,8.00
2023-01-05T03:57:22.659Z,8.00
2023-01-05T03:59:49.950Z,7.90
2023-01-05T04:02:17.750Z,7.90
2023-01-05T04:04:45.344Z,7.90
2023-01-05T04:07:13.083Z,7.90
2023-01-05T04:09:40.417Z,7.90
2023-01-05T04:12:08.243Z,7.90
2023-01-05T04:14:39.475Z,7.90
2023-01-05T04:17:06.595Z,7.90
2023-01-05T04:19:33.542Z,7.90
2023-01-05T04:22:01.369Z,8.00
2023-01-05T04:24:30.851Z,8.00
2023-01-05T04:26:59.906Z,8.00
2023-01-05T04:29:27.989Z,8.00
2023-01-05T04:31:55.705Z,8.00
2023-01-05T04:34:22.595Z,8.00
2023-01-05T04:36:53.101Z,8.00
2023-01-05T04:39:21.610Z,8.00
2023-01-05T04:41:50.505Z,8.00
2023-01-05T04:44:19.968Z,8.10
2023-01-05T04:46:48.599Z,8.10
2023-01-05T04:49:16.633Z,8.10
2023-01-05T04:51:47.139Z,8.00
2023-01-05T04:54:14.074Z,8.00
2023-01-05T04:56:41.983Z,8.00
2023-01-05T04:59:10.087Z,8.10
2023-01-05T05:01:37.485Z,8.10
2023-01-05T05:04:05.032Z,8.20
2023-01-05T05:06:31.965Z,8.10
2023-01-05T05:08:59.840Z,8.10
2023-01-05T05:11:28.432Z,8.20
2023-01-05T05:13:56.750Z,8.20
2023-01-05T05:16:24.207Z,8.20
2023-01-05T05:18:52.708Z,8.20
2023-01-05T05:21:23.784Z,8.20
2023-01-05T05:23:50.687Z,8.20
2023-01-05T05:26:18.323Z,8.20
2023-01-05T05:28:46.929Z,8.20
2023-01-05T05:31:13.741Z,8.20
2023-01-05T05:33:41.617Z,8.20
2023-01-05T05:36:15.048Z,8.30
2023-01-05T05:38:41.967Z,8.20
2023-01-05T05:41:08.774Z,8.20
2023-01-05T05:43:38.645Z,8.20
2023-01-05T05:46:05.942Z,8.20
2023-01-05T05:48:33.044Z,8.20
2023-01-05T05:50:59.950Z,8.20
2023-01-05T05:53:26.814Z,8.10
2023-01-05T05:55:53.623Z,8.10
2023-01-05T05:58:20.761Z,8.10
2023-01-05T06:00:48.212Z,8.30
2023-01-05T06:03:15.511Z,8.20
2023-01-05T06:05:45.408Z,8.20
2023-01-05T06:08:12.279Z,8.20
2023-01-05T06:10:39.758Z,8.20
2023-01-05T06:13:10.175Z,8.20
2023-01-05T06:15:37.172Z,8.20
2023-01-05T06:18:04.166Z,8.20
2023-01-05T06:20:35.696Z,8.20
2023-01-05T06:23:02.654Z,8.20
2023-01-05T06:25:34.906Z,8.20
2023-01-05T06:28:02.274Z,8.20
2023-01-05T06:30:31.110Z,8.10
2023-01-05T06:32:59.344Z,8.00
2023-01-05T06:35:26.319Z,8.00
2023-01-05T06:37:53.484Z,8.00
2023-01-05T06:40:20.653Z,8.00
2023-01-05T06:42:47.759Z,7.90
2023-01-05T06:45:15.993Z,8.00
2023-01-05T06:47:43.426Z,7.90
2023-01-05T06:50:11.022Z,7.80
2023-01-05T06:52:40.792Z,7.80
2023-01-05T06:55:10.256Z,7.80
2023-01-05T06:57:37.203Z,7.80
2023-01-05T07:00:06.448Z,7.90
2023-01-05T07:02:33.573Z,8.00
2023-01-05T07:05:00.960Z,8.00
2023-01-05T07:07:28.205Z,8.00
2023-01-05T07:09:55.024Z,8.30
2023-01-05T07:12:25.671Z,8.40
2023-01-05T07:14:57.245Z,8.40
2023-01-05T07:17:25.740Z,8.50
2023-01-05T07:19:53.082Z,8.60
2023-01-05T07:22:22.085Z,8.60
2023-01-05T07:24:49.222Z,8.60
2023-01-05T07:27:16.164Z,8.60
2023-01-05T07:29:42.961Z,8.60
2023-01-05T07:32:09.830Z,8.60
2023-01-05T07:34:37.325Z,8.60
2023-01-05T07:37:04.710Z,8.60
2023-01-05T07:39:34.272Z,8.60
2023-01-05T07:42:03.133Z,8.50
2023-01-05T07:44:31.283Z,8.40
2023-01-05T07:46:58.947Z,8.40
2023-01-05T07:49:34.360Z,8.30
2023-01-05T07:52:04.079Z,8.30
2023-01-05T07:54:31.288Z,8.30
2023-01-05T07:56:58.272Z,8.30
2023-01-05T07:59:25.242Z,8.20
2023-01-05T08:01:52.249Z,8.20
2023-01-05T08:04:19.171Z,8.10
2023-01-05T08:06:46.067Z,8.10
2023-01-05T08:09:46.730Z,8.10
2023-01-05T08:12:13.727Z,8.10
2023-01-05T08:14:40.847Z,8.10
2023-01-05T08:17:08.716Z,9.30
2023-01-05T08:19:35.570Z,8.00
2023-01-05T08:22:02.554Z,8.10
2023-01-05T08:24:30.043Z,8.10
2023-01-05T08:26:57.204Z,8.20
2023-01-05T08:29:24.560Z,8.20
2023-01-05T08:31:51.550Z,8.20
2023-01-05T08:34:18.504Z,8.20
2023-01-05T08:36:46.438Z,8.20
2023-01-05T08:39:13.554Z,8.20
2023-01-05T08:41:40.879Z,8.20
2023-01-05T08:44:19.860Z,8.20
2023-01-05T08:46:46.673Z,8.20
2023-01-05T08:49:13.518Z,8.20
2023-01-05T08:51:40.629Z,8.20
2023-01-05T08:54:07.508Z,8.20
2023-01-05T08:56:49.028Z,8.20
2023-01-05T08:59:16.343Z,8.30
2023-01-05T09:01:43.332Z,8.40
2023-01-05T09:04:10.350Z,8.50
2023-01-05T09:06:37.158Z,8.80
2023-01-05T09:09:04.857Z,8.80
2023-01-05T09:11:32.114Z,9.00
2023-01-05T09:14:03.002Z,9.00
2023-01-05T09:19:20.413Z,9.20
2023-01-05T09:21:52.541Z,9.40
2023-01-05T09:24:19.938Z,9.40
2023-01-05T09:26:46.993Z,9.50
2023-01-05T09:29:18.383Z,9.50
2023-01-05T09:31:46.113Z,9.40
2023-01-05T09:34:14.109Z,9.30
2023-01-05T09:36:44.621Z,9.20
2023-01-05T09:39:12.104Z,9.20
2023-01-05T09:41:47.843Z,9.40
2023-01-05T09:44:42.181Z,9.80
2023-01-05T09:47:43.343Z,10.10
2023-01-05T09:50:26.316Z,10.20
2023-01-05T09:53:00.322Z,10.00
2023-01-05T09:55:33.665Z,10.00
2023-01-05T09:58:06.382Z,10.00
2023-01-05T10:00:34.079Z,10.10
2023-01-05T10:03:07.802Z,10.60
2023-01-05T10:06:07.262Z,11.10
2023-01-05T10:09:03.883Z,11.30
2023-01-05T10:12:22.798Z,11.30
2023-01-05T10:15:01.458Z,11.80
2023-01-05T10:17:44.229Z,11.80
2023-01-05T10:20:46.728Z,12.00
2023-01-05T10:23:26.801Z,11.60
2023-01-05T10:26:15.682Z,11.50
2023-01-05T10:29:00.057Z,11.10
2023-01-05T10:32:04.425Z,11.10
2023-01-05T10:34:50.426Z,10.80
2023-01-05T10:37:48.147Z,10.80
2023-01-05T10:40:44.012Z,11.40
2023-01-05T10:43:46.175Z,12.00
2023-01-05T10:46:33.578Z,12.60
2023-01-05T10:49:16.016Z,12.30
2023-01-05T10:51:56.284Z,12.00
2023-01-05T10:54:27.974Z,12.20
2023-01-05T10:56:55.472Z,12.30
2023-01-05T10:59:32.926Z,12.30
2023-01-05T11:04:35.411Z,12.00
2023-01-05T11:07:07.134Z,11.70
2023-01-05T11:09:40.665Z,11.40
2023-01-05T11:12:23.633Z,11.20
2023-01-05T11:15:00.824Z,11.30
2023-01-05T11:17:33.846Z,11.50
2023-01-05T11:20:02.769Z,11.80
2023-01-05T11:22:52.072Z,11.70
2023-01-05T11:25:27.153Z,11.60
2023-01-05T11:28:17.689Z,11.60
2023-01-05T11:31:01.953Z,12.20
2023-01-05T11:33:31.777Z,12.60
2023-01-05T11:35:59.490Z,12.90
2023-01-05T11:38:31.888Z,12.70
2023-01-05T11:41:01.271Z,12.80
2023-01-05T11:43:31.531Z,13.00
2023-01-05T11:46:02.195Z,12.90
2023-01-05T11:48:36.035Z,12.60
2023-01-05T11:51:03.748Z,12.70
2023-01-05T11:53:34.331Z,12.90
2023-01-05T11:56:08.572Z,13.20
2023-01-05T11:58:49.428Z,13.90
2023-01-05T12:01:55.670Z,13.90
2023-01-05T12:04:49.560Z,13.70
2023-01-05T12:07:36.421Z,14.10
2023-01-05T12:10:13.033Z,13.80
2023-01-05T12:13:09.700Z,13.90
2023-01-05T12:15:48.268Z,13.90
2023-01-05T12:18:34.211Z,14.00
2023-01-05T12:21:13.173Z,13.80
2023-01-05T12:24:00.129Z,13.80
2023-01-05T12:26:53.962Z,13.70
2023-01-05T12:35:54.254Z,14.30
2023-01-05T12:38:24.430Z,14.70
2023-01-05T12:40:51.211Z,14.20
2023-01-05T12:44:05.480Z,13.90
2023-01-05T12:46:47.148Z,14.10
2023-01-05T12:49:35.657Z,13.70
2023-01-05T12:52:13.247Z,13.60
2023-01-05T12:55:05.970Z,13.50
2023-01-05T12:57:37.575Z,13.40
2023-01-05T13:00:17.937Z,13.00
2023-01-05T13:03:04.673Z,12.90
2023-01-05T13:05:34.926Z,12.50
2023-01-05T13:08:44.432Z,12.40
2023-01-05T13:11:18.456Z,12.00
2023-01-05T13:13:54.514Z,11.70
2023-01-05T13:16:38.414Z,11.70
2023-01-05T13:19:15.214Z,11.60
2023-01-05T13:21:45.163Z,11.40
2023-01-05T13:24:23.409Z,11.40
2023-01-05T13:26:51.653Z,11.40
2023-01-05T13:29:33.079Z,11.40
2023-01-05T13:32:18.290Z,11.30
2023-01-05T13:35:06.048Z,11.40
2023-01-05T13:38:05.077Z,11.30
2023-01-05T13:40:40.876Z,11.20
2023-01-05T13:45:44.748Z,11.30
2023-01-05T13:49:02.976Z,11.20
2023-01-05T13:51:36.339Z,11.10
2023-01-05T13:54:13.115Z,11.00
2023-01-05T13:56:40.719Z,11.00
2023-01-05T14:00:04.052Z,11.00
2023-01-05T14:02:42.387Z,10.90
2023-01-05T14:05:30.398Z,10.80
2023-01-05T14:08:00.227Z,10.90
2023-01-05T14:10:30.225Z,10.80
2023-01-05T14:12:57.753Z,10.80
2023-01-05T14:15:36.500Z,10.80
2023-01-05T14:18:12.904Z,10.80
2023-01-05T14:20:49.160Z,10.80
2023-01-05T14:23:25.678Z,10.70
2023-01-05T14:26:06.735Z,10.60
2023-01-05T14:28:36.484Z,10.60
2023-01-05T14:31:16.107Z,10.50
2023-01-05T14:34:03.623Z,10.50
2023-01-05T14:36:48.988Z,10.60
2023-01-05T14:39:18.478Z,10.50
2023-01-05T14:42:27.607Z,10.50
2023-01-05T14:45:01.637Z,10.50
2023-01-05T14:47:47.830Z,10.50
2023-01-05T14:50:34.892Z,10.40
2023-01-05T14:53:03.282Z,10.40
2023-01-05T14:55:40.047Z,10.30
2023-01-05T14:58:14.608Z,10.30
2023-01-05T15:03:21.177Z,10.20
2023-01-05T15:06:15.572Z,10.10
2023-01-05T15:09:20.976Z,10.10
2023-01-05T15:12:10.101Z,10.00
2023-01-05T15:14:42.800Z,10.00
2023-01-05T15:17:37.637Z,10.00
2023-01-05T15:20:49.038Z,9.90
2023-01-05T15:27:12.657Z,9.90
2023-01-05T15:30:05.365Z,9.90
2023-01-05T15:32:45.381Z,9.80
2023-01-05T15:35:30.787Z,9.80
2023-01-05T15:38:14.502Z,9.70
2023-01-05T15:40:41.574Z,9.70
2023-01-05T15:43:16.415Z,9.70
2023-01-05T15:45:50.165Z,9.60
2023-01-05T15:48:28.183Z,9.60
2023-01-05T15:50:58.415Z,9.60
2023-01-05T15:53:29.453Z,9.60
2023-01-05T15:55:57.634Z,9.50
2023-01-05T15:58:27.024Z,9.50
2023-01-05T16:01:15.412Z,9.50
2023-01-05T16:03:45.511Z,9.50
2023-01-05T16:06:17.804Z,9.50
2023-01-05T16:08:47.356Z,9.60
2023-01-05T16:11:33.373Z,9.50
2023-01-05T16:14:10.655Z,9.50
2023-01-05T16:16:54.447Z,9.60
2023-01-05T16:19:31.831Z,9.60
2023-01-05T16:22:16.971Z,9.60
2023-01-05T16:24:59.818Z,9.60
2023-01-05T16:27:27.980Z,9.50
2023-01-05T16:29:55.239Z,9.50
2023-01-05T16:32:31.115Z,9.50
2023-01-05T16:35:19.677Z,9.50
2023-01-05T16:38:01.874Z,9.40
2023-01-05T16:40:28.850Z,9.40
2023-01-05T16:42:55.890Z,9.30
2023-01-05T16:45:29.839Z,9.20
2023-01-05T16:47:57.006Z,9.20
2023-01-05T16:50:23.730Z,9.20
2023-01-05T16:53:04.402Z,9.20
2023-01-05T16:55:36.781Z,9.10
2023-01-05T16:58:25.544Z,9.10
2023-01-05T17:00:54.211Z,9.10
2023-01-05T17:03:32.558Z,9.10
2023-01-05T17:06:01.312Z,9.00
2023-01-05T17:08:31.894Z,9.00
2023-01-05T17:11:01.785Z,9.00
2023-01-05T17:13:37.434Z,8.90
2023-01-05T17:16:06.027Z,8.90
2023-01-05T17:18:33.467Z,9.00
2023-01-05T17:21:01.164Z,9.00
2023-01-05T17:23:35.661Z,9.00
2023-01-05T17:26:06.020Z,9.00
2023-01-05T17:28:33.197Z,9.00
2023-01-05T17:31:00.032Z,8.90
2023-01-05T17:33:27.293Z,8.90
2023-01-05T17:35:55.249Z,8.80
2023-01-05T17:38:25.125Z,8.80
2023-01-05T17:40:52.051Z,8.70
2023-01-05T17:43:18.893Z,8.70
2023-01-05T17:45:46.152Z,8.70
2023-01-05T17:48:16.268Z,8.80
2023-01-05T17:50:44.687Z,8.80
2023-01-05T17:53:12.434Z,8.80
2023-01-05T17:55:40.521Z,8.80
2023-01-05T17:58:07.486Z,8.80
2023-01-05T18:00:39.692Z,8.80
2023-01-05T18:03:06.582Z,8.70
2023-01-05T18:05:33.427Z,8.70
2023-01-05T18:08:00.264Z,8.70
2023-01-05T18:10:29.143Z,8.70
2023-01-05T18:12:57.351Z,8.60
2023-01-05T18:17:58.490Z,8.40
2023-01-05T18:20:27.165Z,8.40
2023-01-05T18:22:54.360Z,8.30
2023-01-05T18:25:23.413Z,8.30
2023-01-05T18:27:50.664Z,8.30
2023-01-05T18:30:17.795Z,8.30
2023-01-05T18:32:47.403Z,8.20
2023-01-05T18:35:15.947Z,8.20
2023-01-05T18:37:42.823Z,8.20
2023-01-05T18:40:10.970Z,8.20
2023-01-05T18:42:39.344Z,8.20
2023-01-05T18:45:19.289Z,8.20
2023-01-05T18:47:46.803Z,8.20
2023-01-05T18:50:14.094Z,8.20
2023-01-05T18:52:41.265Z,8.30
2023-01-05T18:55:08.472Z,8.20
2023-01-05T18:57:35.998Z,8.20
2023-01-05T19:00:08.377Z,8.20
2023-01-05T19:02:36.907Z,8.20
2023-01-05T19:05:04.309Z,8.20
2023-01-05T19:07:32.702Z,8.30
2023-01-05T19:09:59.478Z,8.20
2023-01-05T19:12:26.466Z,8.20
2023-01-05T19:14:53.305Z,8.10
2023-01-05T19:17:20.183Z,8.10
2023-01-05T19:19:47.377Z,8.10
2023-01-05T19:22:14.174Z,8.20
2023-01-05T19:24:41.349Z,8.20
2023-01-05T19:27:08.280Z,8.10
2023-01-05T19:29:35.259Z,8.10
2023-01-05T19:32:02.565Z,8.10
2023-01-05T19:34:29.452Z,8.10
2023-01-05T19:36:56.298Z,8.00
2023-01-05T19:39:23.302Z,7.90
2023-01-05T19:41:53.743Z,7.90
2023-01-05T19:44:22.310Z,7.70
2023-01-05T19:46:52.297Z,7.60
2023-01-05T19:49:22.191Z,7.60
2023-01-05T19:51:50.372Z,7.50
2023-01-05T19:54:18.114Z,7.30
2023-01-05T19:56:45.953Z,7.30
2023-01-05T19:59:18.043Z,7.30
2023-01-05T20:01:45.460Z,7.30
2023-01-05T20:04:12.447Z,7.10
2023-01-05T20:06:42.052Z,6.90
2023-01-05T20:09:16.893Z,6.70
2023-01-05T20:11:47.121Z,6.60
2023-01-05T20:14:17.973Z,6.60
2023-01-05T20:16:48.695Z,6.50
2023-01-05T20:19:16.818Z,6.40
2023-01-05T20:21:43.731Z,6.30
2023-01-05T20:24:14.157Z,6.20
2023-01-05T20:26:42.246Z,6.40
2023-01-05T20:29:09.955Z,6.50
2023-01-05T20:31:41.392Z,6.60
2023-01-05T20:34:11.467Z,6.70
2023-01-05T20:36:38.932Z,6.80
2023-01-05T20:39:07.435Z,6.90
2023-01-05T20:41:37.564Z,6.90
2023-01-05T20:44:05.473Z,6.90
2023-01-05T20:46:36.040Z,6.90
2023-01-05T20:49:03.868Z,6.80
2023-01-05T20:51:30.686Z,6.90
2023-01-05T20:53:59.224Z,6.90
2023-01-05T20:56:32.882Z,7.00
2023-01-05T20:59:00.665Z,7.10
2023-01-05T21:01:29.892Z,7.10
2023-01-05T21:03:58.199Z,7.10
2023-01-05T21:06:25.661Z,7.00
2023-01-05T21:08:52.551Z,7.10
2023-01-05T21:11:22.904Z,7.10
2023-01-05T21:13:50.470Z,7.20
2023-01-05T21:16:22.132Z,7.20
2023-01-05T21:18:49.935Z,7.20
2023-01-05T21:21:19.350Z,7.20
2023-01-05T21:23:47.781Z,7.20
2023-01-05T21:26:15.843Z,7.20
2023-01-05T21:28:44.024Z,7.30
2023-01-05T21:31:16.535Z,7.20
2023-01-05T21:33:43.716Z,7.20
2023-01-05T21:36:17.528Z,7.20
2023-01-05T21:39:00.893Z,7.10
2023-01-05T21:41:49.783Z,7.20
2023-01-05T21:44:17.170Z,7.20
2023-01-05T21:46:44.496Z,7.10
2023-01-05T21:49:13.041Z,7.10
2023-01-05T21:51:58.644Z,7.10
2023-01-05T21:54:44.289Z,7.20
2023-01-05T21:57:11.766Z,7.10
2023-01-05T21:59:39.324Z,7.10
2023-01-05T22:02:07.001Z,7.00
2023-01-05T22:04:34.118Z,7.00
2023-01-05T22:07:00.968Z,6.90
2023-01-05T22:09:27.813Z,6.90
2023-01-05T22:11:54.674Z,6.90
2023-01-05T22:14:21.467Z,6.90
2023-01-05T22:16:48.284Z,6.90
2023-01-05T22:19:15.297Z,7.00
2023-01-05T22:21:42.447Z,7.00
2023-01-05T22:24:11.507Z,7.00
2023-01-05T22:26:38.474Z,7.00
2023-01-05T22:29:05.429Z,7.10
2023-01-05T22:31:32.882Z,7.00
2023-01-05T22:34:00.586Z,7.10
2023-01-05T22:36:28.806Z,7.10
2023-01-05T22:38:56.265Z,7.10
2023-01-05T22:41:29.936Z,7.10
2023-01-05T22:43:58.233Z,7.10
2023-01-05T22:46:27.625Z,7.10
2023-01-05T22:48:55.943Z,7.10
2023-01-05T22:51:27.512Z,7.10
2023-01-05T22:53:56.789Z,7.10
2023-01-05T22:56:25.360Z,7.00
2023-01-05T22:58:52.691Z,7.00
2023-01-05T23:01:29.232Z,7.10
2023-01-05T23:03:57.808Z,7.10
2023-01-05T23:06:25.411Z,7.10
2023-01-05T23:08:54.072Z,7.10
2023-01-05T23:11:30.234Z,7.10
2023-01-05T23:13:59.179Z,7.10
2023-01-05T23:16:27.161Z,7.00
2023-01-05T23:18:55.040Z,7.00
2023-01-05T23:21:23.814Z,7.00
2023-01-05T23:23:57.152Z,7.00
2023-01-05T23:26:25.698Z,7.00
2023-01-05T23:28:52.799Z,7.00
2023-01-05T23:31:19.921Z,7.00
2023-01-05T23:33:47.835Z,6.90
2023-01-05T23:36:16.470Z,6.90
2023-01-05T23:38:45.489Z,6.90
2023-01-05T23:41:14.665Z,6.80
2023-01-05T23:43:45.005Z,6.90
2023-01-05T23:46:20.048Z,6.80
2023-01-05T23:48:48.044Z,6.80
2023-01-05T23:51:16.496Z,6.80
2023-01-05T23:53:45.475Z,6.80
2023-01-05T23:56:20.312Z,6.80
2023-01-05T23:58:47.924Z,6.70
